sensor_id;sensor_type;location;lat;lon;timestamp;P1;P2;P0
75187;PMS7003;63762;51.334;22.108;2023-06-19T00:03:42;0;0;0
75187;PMS7003;63762;51.334;22.108;2023-06-19T00:13:49;2;2;1
75187;PMS7003;63762;51.334;22.108;2023-06-19T00:23:56;1;0;0
75187;PMS7003;63762;51.334;22.108;2023-06-19T00:34:03;2;2;2
75187;PMS7003;63762;51.334;22.108;2023-06-19T00:44:11;2;1;0
75187;PMS7003;63762;51.334;22.108;2023-06-19T00:54:18;4;2;2
75187;PMS7003;63762;51.334;22.108;2023-06-19T01:04:25;0;0;0
75187;PMS7003;63762;51.334;22.108;2023-06-19T01:14:39;1;1;1
75187;PMS7003;63762;51.334;22.108;2023-06-19T01:24:47;2;2;1
75187;PMS7003;63762;51.334;22.108;2023-06-19T01:34:48;1;1;1
75187;PMS7003;63762;51.334;22.108;2023-06-19T01:44:53;1;1;0
75187;PMS7003;63762;51.334;22.108;2023-06-19T01:55:00;0;0;0
75187;PMS7003;63762;51.334;22.108;2023-06-19T02:05:08;0;0;0
75187;PMS7003;63762;51.334;22.108;2023-06-19T02:15:15;0;0;0
75187;PMS7003;63762;51.334;22.108;2023-06-19T02:25:22;2;0;0
75187;PMS7003;63762;51.334;22.108;2023-06-19T02:35:29;2;2;2
75187;PMS7003;63762;51.334;22.108;2023-06-19T02:45:36;0;0;0
75187;PMS7003;63762;51.334;22.108;2023-06-19T02:55:43;7;1;1
75187;PMS7003;63762;51.334;22.108;2023-06-19T03:05:50;4;2;1
75187;PMS7003;63762;51.334;22.108;2023-06-19T03:15:57;2;0;0
75187;PMS7003;63762;51.334;22.108;2023-06-19T03:26:05;2;0;0
75187;PMS7003;63762;51.334;22.108;2023-06-19T03:36:12;5;2;1
75187;PMS7003;63762;51.334;22.108;2023-06-19T03:46:19;1;1;0
75187;PMS7003;63762;51.334;22.108;2023-06-19T03:56:26;0;0;0
75187;PMS7003;63762;51.334;22.108;2023-06-19T04:06:33;1;1;0
75187;PMS7003;63762;51.334;22.108;2023-06-19T04:16:40;0;0;0
75187;PMS7003;63762;51.334;22.108;2023-06-19T04:26:48;2;2;1
75187;PMS7003;63762;51.334;22.108;2023-06-19T04:36:55;1;1;1
75187;PMS7003;63762;51.334;22.108;2023-06-19T04:47:02;3;3;3
75187;PMS7003;63762;51.334;22.108;2023-06-19T04:57:09;1;0;0
75187;PMS7003;63762;51.334;22.108;2023-06-19T05:07:16;2;2;1
75187;PMS7003;63762;51.334;22.108;2023-06-19T05:17:23;10;4;2
75187;PMS7003;63762;51.334;22.108;2023-06-19T05:27:31;3;3;2
75187;PMS7003;63762;51.334;22.108;2023-06-19T05:37:37;5;2;1
75187;PMS7003;63762;51.334;22.108;2023-06-19T05:47:44;2;0;0
75187;PMS7003;63762;51.334;22.108;2023-06-19T05:57:51;2;1;0
75187;PMS7003;63762;51.334;22.108;2023-06-19T06:07:59;1;0;0
75187;PMS7003;63762;51.334;22.108;2023-06-19T06:18:06;5;5;4
75187;PMS7003;63762;51.334;22.108;2023-06-19T06:28:13;1;1;1
75187;PMS7003;63762;51.334;22.108;2023-06-19T06:38:20;7;7;4
75187;PMS7003;63762;51.334;22.108;2023-06-19T06:48:27;6;4;3
75187;PMS7003;63762;51.334;22.108;2023-06-19T06:58:34;2;2;1
75187;PMS7003;63762;51.334;22.108;2023-06-19T07:08:41;1;1;0
75187;PMS7003;63762;51.334;22.108;2023-06-19T07:18:48;2;2;2
75187;PMS7003;63762;51.334;22.108;2023-06-19T07:28:56;4;3;2
75187;PMS7003;63762;51.334;22.108;2023-06-19T07:39:03;1;1;0
75187;PMS7003;63762;51.334;22.108;2023-06-19T07:49:10;6;2;1
75187;PMS7003;63762;51.334;22.108;2023-06-19T07:59:17;3;3;3
75187;PMS7003;63762;51.334;22.108;2023-06-19T08:09:24;2;2;1
75187;PMS7003;63762;51.334;22.108;2023-06-19T08:19:31;8;5;5
75187;PMS7003;63762;51.334;22.108;2023-06-19T08:29:39;4;4;3
75187;PMS7003;63762;51.334;22.108;2023-06-19T08:39:45;5;4;2
75187;PMS7003;63762;51.334;22.108;2023-06-19T08:49:53;7;7;5
75187;PMS7003;63762;51.334;22.108;2023-06-19T09:00:00;2;2;1
75187;PMS7003;63762;51.334;22.108;2023-06-19T09:20:15;3;3;1
75187;PMS7003;63762;51.334;22.108;2023-06-19T09:30:26;5;4;2
75187;PMS7003;63762;51.334;22.108;2023-06-19T09:40:28;2;1;1
75187;PMS7003;63762;51.334;22.108;2023-06-19T09:50:35;2;2;1
75187;PMS7003;63762;51.334;22.108;2023-06-19T10:00:42;2;0;0
75187;PMS7003;63762;51.334;22.108;2023-06-19T10:10:49;2;2;2
75187;PMS7003;63762;51.334;22.108;2023-06-19T10:20:57;1;1;1
75187;PMS7003;63762;51.334;22.108;2023-06-19T10:31:05;4;3;3
75187;PMS7003;63762;51.334;22.108;2023-06-19T10:41:15;5;5;3
75187;PMS7003;63762;51.334;22.108;2023-06-19T10:51:18;4;4;3
75187;PMS7003;63762;51.334;22.108;2023-06-19T11:01:34;3;3;3
75187;PMS7003;63762;51.334;22.108;2023-06-19T11:21:49;2;2;2
75187;PMS7003;63762;51.334;22.108;2023-06-19T11:31:53;2;2;1
75187;PMS7003;63762;51.334;22.108;2023-06-19T11:41:59;4;3;2
75187;PMS7003;63762;51.334;22.108;2023-06-19T11:52:01;4;4;3
75187;PMS7003;63762;51.334;22.108;2023-06-19T12:02:08;2;2;2
75187;PMS7003;63762;51.334;22.108;2023-06-19T12:12:15;5;4;3
75187;PMS7003;63762;51.334;22.108;2023-06-19T12:22:22;8;4;3
75187;PMS7003;63762;51.334;22.108;2023-06-19T12:32:30;6;5;2
75187;PMS7003;63762;51.334;22.108;2023-06-19T12:42:36;4;4;3
75187;PMS7003;63762;51.334;22.108;2023-06-19T12:52:43;4;4;2
75187;PMS7003;63762;51.334;22.108;2023-06-19T13:02:50;4;4;3
75187;PMS7003;63762;51.334;22.108;2023-06-19T13:12:58;3;3;3
75187;PMS7003;63762;51.334;22.108;2023-06-19T13:23:05;4;4;4
75187;PMS7003;63762;51.334;22.108;2023-06-19T13:33:12;7;6;3
75187;PMS7003;63762;51.334;22.108;2023-06-19T13:43:19;6;5;3
75187;PMS7003;63762;51.334;22.108;2023-06-19T13:53:26;6;5;3
75187;PMS7003;63762;51.334;22.108;2023-06-19T14:03:33;6;4;4
75187;PMS7003;63762;51.334;22.108;2023-06-19T14:13:40;5;5;2
75187;PMS7003;63762;51.334;22.108;2023-06-19T14:23:47;4;4;3
75187;PMS7003;63762;51.334;22.108;2023-06-19T14:33:55;6;6;4
75187;PMS7003;63762;51.334;22.108;2023-06-19T14:44:02;8;3;2
75187;PMS7003;63762;51.334;22.108;2023-06-19T14:54:09;5;5;3
75187;PMS7003;63762;51.334;22.108;2023-06-19T15:04:16;4;4;4
75187;PMS7003;63762;51.334;22.108;2023-06-19T15:14:23;5;3;2
75187;PMS7003;63762;51.334;22.108;2023-06-19T15:24:30;4;4;3
75187;PMS7003;63762;51.334;22.108;2023-06-19T15:34:38;4;3;1
75187;PMS7003;63762;51.334;22.108;2023-06-19T15:44:44;3;3;2
75187;PMS7003;63762;51.334;22.108;2023-06-19T15:54:51;4;4;3
75187;PMS7003;63762;51.334;22.108;2023-06-19T16:04:59;5;5;3
75187;PMS7003;63762;51.334;22.108;2023-06-19T16:15:06;5;5;4
75187;PMS7003;63762;51.334;22.108;2023-06-19T16:25:13;3;3;3
75187;PMS7003;63762;51.334;22.108;2023-06-19T16:35:20;5;5;4
75187;PMS7003;63762;51.334;22.108;2023-06-19T16:45:27;5;4;3
75187;PMS7003;63762;51.334;22.108;2023-06-19T16:55:34;5;2;2
75187;PMS7003;63762;51.334;22.108;2023-06-19T17:05:41;18;15;10
75187;PMS7003;63762;51.334;22.108;2023-06-19T17:18:57;13;13;8
75187;PMS7003;63762;51.334;22.108;2023-06-19T17:29:04;9;9;7
75187;PMS7003;63762;51.334;22.108;2023-06-19T17:39:11;8;6;5
75187;PMS7003;63762;51.334;22.108;2023-06-19T17:49:18;3;3;2
75187;PMS7003;63762;51.334;22.108;2023-06-19T17:59:26;6;6;4
75187;PMS7003;63762;51.334;22.108;2023-06-19T18:09:33;7;7;5
75187;PMS7003;63762;51.334;22.108;2023-06-19T18:19:40;7;7;5
75187;PMS7003;63762;51.334;22.108;2023-06-19T18:29:47;5;5;4
75187;PMS7003;63762;51.334;22.108;2023-06-19T18:39:54;11;8;6
75187;PMS7003;63762;51.334;22.108;2023-06-19T18:50:01;11;7;4
75187;PMS7003;63762;51.334;22.108;2023-06-19T19:00:09;6;6;5
75187;PMS7003;63762;51.334;22.108;2023-06-19T19:10:15;6;5;4
75187;PMS7003;63762;51.334;22.108;2023-06-19T19:20:23;7;7;6
75187;PMS7003;63762;51.334;22.108;2023-06-19T19:30:30;6;6;5
75187;PMS7003;63762;51.334;22.108;2023-06-19T19:40:37;5;5;4
75187;PMS7003;63762;51.334;22.108;2023-06-19T19:50:44;3;3;2
75187;PMS7003;63762;51.334;22.108;2023-06-19T20:00:51;5;5;4
75187;PMS7003;63762;51.334;22.108;2023-06-19T20:10:58;5;5;3
75187;PMS7003;63762;51.334;22.108;2023-06-19T20:21:05;7;6;5
75187;PMS7003;63762;51.334;22.108;2023-06-19T20:31:12;10;7;5
75187;PMS7003;63762;51.334;22.108;2023-06-19T20:41:20;5;4;3
75187;PMS7003;63762;51.334;22.108;2023-06-19T20:51:27;5;4;2
75187;PMS7003;63762;51.334;22.108;2023-06-19T21:01:34;4;3;2
75187;PMS7003;63762;51.334;22.108;2023-06-19T21:11:41;8;7;6
75187;PMS7003;63762;51.334;22.108;2023-06-19T21:21:48;8;8;6
75187;PMS7003;63762;51.334;22.108;2023-06-19T21:31:55;7;7;5
75187;PMS7003;63762;51.334;22.108;2023-06-19T21:42:03;9;9;5
75187;PMS7003;63762;51.334;22.108;2023-06-19T21:52:09;7;6;5
75187;PMS7003;63762;51.334;22.108;2023-06-19T22:02:16;4;4;2
75187;PMS7003;63762;51.334;22.108;2023-06-19T22:12:24;6;4;3
75187;PMS7003;63762;51.334;22.108;2023-06-19T22:22:31;12;12;6
75187;PMS7003;63762;51.334;22.108;2023-06-19T22:32:38;9;9;6
75187;PMS7003;63762;51.334;22.108;2023-06-19T22:42:46;7;5;3
75187;PMS7003;63762;51.334;22.108;2023-06-19T22:52:52;7;7;4
75187;PMS7003;63762;51.334;22.108;2023-06-19T23:02:59;11;5;2
75187;PMS7003;63762;51.334;22.108;2023-06-19T23:13:06;7;7;5
75187;PMS7003;63762;51.334;22.108;2023-06-19T23:23:14;7;7;3
75187;PMS7003;63762;51.334;22.108;2023-06-19T23:33:21;6;6;5
75187;PMS7003;63762;51.334;22.108;2023-06-19T23:43:28;6;5;4
75187;PMS7003;63762;51.334;22.108;2023-06-19T23:53:35;2;2;1
